Time;durP1;ratioP1;P1;durP2;ratioP2;P2;SDS_P1;SDS_P2;PMS_P1;PMS_P2;Temp;Humidity;BMP_temperature;BMP_pressure;BME280_temperature;BME280_humidity;BME280_pressure;Samples;Min_cycle;Max_cycle;Signal;HPM_P1;HPM_P2
2024/02/25 12:57:58;;;;;;;2.83;2.63;;;;;;;;;;5091084;23;20055;-96
2024/02/25 13:00:24;;;;;;;2.97;2.65;;;;;;;;;;4954575;29;20055;-96
2024/02/25 13:02:49;;;;;;;2.55;2.30;;;;;;;;;;4978478;28;20054;-94
2024/02/25 13:05:36;;;;;;;3.97;3.33;;;;;;;;;;4977029;28;20035;-93
2024/02/25 13:08:36;;;;;;;4.60;2.67;;;;;;;;;;5107293;23;20027;-93
2024/02/25 13:11:25;;;;;;;3.60;3.03;;;;;;;;;;4959088;28;20038;-95
2024/02/25 13:14:03;;;;;;;3.05;2.60;;;;;;;;;;5038439;23;20050;-94
2024/02/25 13:16:56;;;;;;;3.67;2.78;;;;;;;;;;5017178;23;20043;-95
2024/02/25 13:27:49;;;;;;;3.30;2.67;;;;;;;;;;5080509;23;20059;-95
2024/02/25 13:30:50;;;;;;;4.70;2.70;;;;;;;;;;4971909;28;20030;-96
2024/02/25 13:33:23;;;;;;;2.95;2.42;;;;;;;;;;4987365;28;20118;-96
2024/02/25 13:36:05;;;;;;;5.45;3.20;;;;;;;;;;5022445;23;20058;-96
2024/02/25 13:39:22;;;;;;;3.28;2.40;;;;;;;;;;5336718;23;20044;-95
2024/02/25 13:42:15;;;;;;;3.30;1.85;;;;;;;;;;5176441;23;20024;-96
2024/02/25 13:45:35;;;;;;;4.20;2.45;;;;;;;;;;5147053;23;20110;-96
2024/02/25 13:48:04;;;;;;;2.00;1.90;;;;;;;;;;4989010;28;20042;-96
2024/02/25 13:50:30;;;;;;;2.53;1.98;;;;;;;;;;4975828;28;20046;-95
2024/02/25 13:52:55;;;;;;;2.05;1.75;;;;;;;;;;4991907;28;20547;-94
2024/02/25 13:55:27;;;;;;;1.75;1.65;;;;;;;;;;4978547;28;20027;-96
2024/02/25 13:57:55;;;;;;;2.95;2.00;;;;;;;;;;4983524;28;20066;-96
2024/02/25 14:00:23;;;;;;;2.20;1.98;;;;;;;;;;4960580;28;20033;-96
2024/02/25 14:02:48;;;;;;;2.58;2.10;;;;;;;;;;4956878;28;20043;-94
2024/02/25 14:05:14;;;;;;;1.85;1.75;;;;;;;;;;4968623;28;20049;-94
2024/02/25 14:07:39;;;;;;;2.28;2.08;;;;;;;;;;4973387;28;20390;-93
2024/02/25 14:10:05;;;;;;;2.47;1.90;;;;;;;;;;4974780;28;20077;-94
2024/02/25 14:12:31;;;;;;;3.47;1.80;;;;;;;;;;4974830;28;20472;-96
2024/02/25 14:18:05;;;;;;;2.10;1.90;;;;;;;;;;4994054;23;20063;-94
2024/02/25 14:20:37;;;;;;;2.05;1.83;;;;;;;;;;4940270;29;20490;-96
2024/02/25 14:23:04;;;;;;;2.47;2.10;;;;;;;;;;4956210;29;20031;-93
2024/02/25 14:25:29;;;;;;;2.17;1.98;;;;;;;;;;4945832;29;20034;-96
2024/02/25 14:27:56;;;;;;;2.75;2.13;;;;;;;;;;4970648;28;20113;-95
2024/02/25 14:30:23;;;;;;;2.33;2.13;;;;;;;;;;4999085;23;20046;-94
2024/02/25 14:32:51;;;;;;;2.50;2.30;;;;;;;;;;4963323;28;20505;-94
2024/02/25 14:35:21;;;;;;;2.38;2.17;;;;;;;;;;4975303;23;20054;-96
2024/02/25 14:37:52;;;;;;;3.35;2.10;;;;;;;;;;5028104;28;20045;-96
2024/02/25 14:40:20;;;;;;;;;;;;;;;;;;5046840;23;20016;-96
2024/02/25 14:42:50;;;;;;;3.30;1.95;;;;;;;;;;4982334;28;19913;-95
2024/02/25 14:45:16;;;;;;;4.07;2.45;;;;;;;;;;4982084;28;20030;-94
2024/02/25 14:47:42;;;;;;;2.95;1.88;;;;;;;;;;4962627;28;20053;-93
2024/02/25 14:50:09;;;;;;;2.97;2.60;;;;;;;;;;4962794;28;20027;-95
2024/02/25 14:52:38;;;;;;;3.58;2.50;;;;;;;;;;4990733;28;20031;-95
2024/02/25 14:55:08;;;;;;;2.58;2.38;;;;;;;;;;4964635;28;20045;-95
2024/02/25 14:57:34;;;;;;;4.93;2.25;;;;;;;;;;4957803;28;20035;-94
2024/02/25 14:59:59;;;;;;;;;;;;;;;;;;4967205;28;20031;-95
2024/02/25 15:02:25;;;;;;;;;;;;;;;;;;4974301;23;19930;-94
2024/02/25 15:04:52;;;;;;;;;;;;;;;;;;4957821;28;19922;-94
2024/02/25 15:07:24;;;;;;;;;;;;;;;;;;4965356;28;19994;-95
2024/02/25 15:09:52;;;;;;;;;;;;;;;;;;4977052;28;19929;-95
2024/02/25 15:12:19;;;;;;;;;;;;;;;;;;4964183;29;19918;-96
2024/02/25 15:14:47;;;;;;;;;;;;;;;;;;4943259;29;19918;-95
2024/02/25 15:17:17;;;;;;;;;;;;;;;;;;4946875;29;20436;-96
2024/02/25 15:19:42;;;;;;;;;;;;;;;;;;4965161;28;19976;-96
2024/02/25 15:22:11;;;;;;;;;;;;;;;;;;4963727;28;19919;-94
2024/02/25 15:24:41;;;;;;;;;;;;;;;;;;4935953;29;19919;-96
2024/02/25 15:27:18;;;;;;;;;;;;;;;;;;4999063;23;19918;-96
2024/02/25 15:29:45;;;;;;;;;;;;;;;;;;4988950;28;19985;-94
2024/02/25 15:32:10;;;;;;;;;;;;;;;;;;4987813;28;19968;-89
2024/02/25 15:34:36;;;;;;;;;;;;;;;;;;4979556;28;19918;-92
2024/02/25 15:37:03;;;;;;;;;;;;;;;;;;4971892;28;19918;-92
2024/02/25 15:39:28;;;;;;;;;;;;;;;;;;4961103;28;20390;-91
2024/02/25 15:41:53;;;;;;;;;;;;;;;;;;4972701;28;19925;-90
2024/02/25 15:44:19;;;;;;;;;;;;;;;;;;4971275;28;19918;-90
2024/02/25 15:46:44;;;;;;;;;;;;;;;;;;4974406;28;19922;-89
2024/02/25 15:49:11;;;;;;;;;;;;;;;;;;4977615;28;19918;-90
2024/02/25 15:51:37;;;;;;;;;;;;;;;;;;4979683;28;19922;-94
2024/02/25 15:54:02;;;;;;;;;;;;;;;;;;4963348;28;19948;-90
2024/02/25 15:56:27;;;;;;;;;;;;;;;;;;4976434;28;19954;-92
2024/02/25 15:58:53;;;;;;;;;;;;;;;;;;4963207;28;19945;-92
2024/02/25 16:01:19;;;;;;;;;;;;;;;;;;4974096;28;19918;-95
2024/02/25 16:03:48;;;;;;;;;;;;;;;;;;4956763;28;19926;-93
2024/02/25 16:06:15;;;;;;;;;;;;;;;;;;4968822;28;20312;-95
2024/02/25 16:08:41;;;;;;;;;;;;;;;;;;4958342;28;19926;-92
2024/02/25 16:11:06;;;;;;;;;;;;;;;;;;4957185;29;19918;-92
2024/02/25 16:13:32;;;;;;;;;;;;;;;;;;4970646;28;19941;-93
2024/02/25 16:15:57;;;;;;;;;;;;;;;;;;4960072;28;19918;-93
2024/02/25 16:18:22;;;;;;;;;;;;;;;;;;4960463;28;19928;-93
2024/02/25 16:20:48;;;;;;;;;;;;;;;;;;4975285;28;20008;-96
2024/02/25 16:23:15;;;;;;;;;;;;;;;;;;4957081;29;20443;-94
2024/02/25 16:25:42;;;;;;;;;;;;;;;;;;4973677;28;19961;-94
2024/02/25 16:28:08;;;;;;;;;;;;;;;;;;4960643;28;20411;-93
2024/02/25 16:30:33;;;;;;;;;;;;;;;;;;4960913;28;19922;-94
2024/02/25 16:32:59;;;;;;;;;;;;;;;;;;4960470;29;20383;-93
2024/02/25 16:35:24;;;;;;;;;;;;;;;;;;4976144;28;19934;-95
2024/02/25 16:37:49;;;;;;;;;;;;;;;;;;4965973;28;19952;-93
2024/02/25 16:40:15;;;;;;;;;;;;;;;;;;4962343;28;19954;-93
2024/02/25 16:42:41;;;;;;;;;;;;;;;;;;4962965;28;19914;-92
2024/02/25 16:45:06;;;;;;;;;;;;;;;;;;4970428;28;20005;-93
2024/02/25 16:47:32;;;;;;;;;;;;;;;;;;4961351;28;20353;-92
2024/02/25 16:49:57;;;;;;;;;;;;;;;;;;4963653;28;19918;-92
2024/02/25 16:52:23;;;;;;;;;;;;;;;;;;4966668;28;20010;-92
2024/02/25 16:54:49;;;;;;;;;;;;;;;;;;4976068;28;19918;-93
2024/02/25 16:57:14;;;;;;;;;;;;;;;;;;4976985;28;20430;-93
2024/02/25 16:59:40;;;;;;;;;;;;;;;;;;4968073;28;19972;-95
2024/02/25 17:02:05;;;;;;;;;;;;;;;;;;4974797;28;19965;-94
2024/02/25 17:04:31;;;;;;;;;;;;;;;;;;4965287;28;19965;-94
2024/02/25 17:06:56;;;;;;;;;;;;;;;;;;4963025;28;20393;-93
2024/02/25 17:09:22;;;;;;;;;;;;;;;;;;4964101;28;20388;-92
2024/02/25 17:11:48;;;;;;;;;;;;;;;;;;4976832;28;19985;-93
2024/02/25 17:14:14;;;;;;;;;;;;;;;;;;4973379;28;19919;-94
2024/02/25 17:16:42;;;;;;;;;;;;;;;;;;4960182;28;19918;-94
2024/02/25 17:19:07;;;;;;;;;;;;;;;;;;4960340;28;20004;-93
2024/02/25 17:21:33;;;;;;;;;;;;;;;;;;4975096;28;20381;-94
2024/02/25 17:24:00;;;;;;;;;;;;;;;;;;4975189;28;19925;-94
2024/02/25 17:26:26;;;;;;;;;;;;;;;;;;4959833;28;19918;-94
2024/02/25 17:28:56;;;;;;;;;;;;;;;;;;4959354;28;19926;-95
2024/02/25 17:31:21;;;;;;;;;;;;;;;;;;4963876;28;20381;-92
2024/02/25 17:33:46;;;;;;;;;;;;;;;;;;4979784;28;19918;-93
2024/02/25 17:36:14;;;;;;;;;;;;;;;;;;4965474;28;19926;-93
2024/02/25 17:38:39;;;;;;;;;;;;;;;;;;4970879;28;19918;-90
2024/02/25 17:41:05;;;;;;;;;;;;;;;;;;4969994;28;19918;-93
2024/02/25 17:43:30;;;;;;;;;;;;;;;;;;4978896;28;19946;-92
2024/02/25 17:45:57;;;;;;;;;;;;;;;;;;4982706;28;19918;-92
2024/02/25 17:48:23;;;;;;;;;;;;;;;;;;4969052;28;19942;-92
2024/02/25 17:50:48;;;;;;;;;;;;;;;;;;4964795;28;19918;-93
2024/02/25 17:53:14;;;;;;;;;;;;;;;;;;4965875;28;20297;-94
2024/02/25 17:55:39;;;;;;;;;;;;;;;;;;4977217;28;20304;-92
2024/02/25 17:58:05;;;;;;;;;;;;;;;;;;4980878;28;19918;-94
2024/02/25 18:00:31;;;;;;;;;;;;;;;;;;4977206;28;19922;-93
2024/02/25 18:02:57;;;;;;;;;;;;;;;;;;4980896;28;19972;-94
2024/02/25 18:05:23;;;;;;;;;;;;;;;;;;4970868;28;19969;-94
2024/02/25 18:07:48;;;;;;;;;;;;;;;;;;4951305;28;19918;-93
2024/02/25 18:10:15;;;;;;;;;;;;;;;;;;4979199;28;19941;-92
2024/02/25 18:12:41;;;;;;;;;;;;;;;;;;4971705;28;19918;-93
2024/02/25 18:15:06;;;;;;;;;;;;;;;;;;4975278;28;19919;-92
2024/02/25 18:17:32;;;;;;;;;;;;;;;;;;4974292;28;19918;-94
2024/02/25 18:19:57;;;;;;;;;;;;;;;;;;4979809;28;20297;-94
2024/02/25 18:22:22;;;;;;;;;;;;;;;;;;4985380;28;19945;-93
2024/02/25 18:24:49;;;;;;;;;;;;;;;;;;4980729;28;19922;-93
2024/02/25 18:27:15;;;;;;;;;;;;;;;;;;4963603;28;19926;-93
2024/02/25 18:29:40;;;;;;;;;;;;;;;;;;4981200;28;19945;-95
2024/02/25 18:32:06;;;;;;;;;;;;;;;;;;4965787;28;19953;-95
2024/02/25 18:34:32;;;;;;;;;;;;;;;;;;4984011;28;19941;-95
2024/02/25 18:36:57;;;;;;;;;;;;;;;;;;4983397;28;19924;-96
2024/02/25 18:39:22;;;;;;;;;;;;;;;;;;4972538;28;19981;-95
2024/02/25 18:41:48;;;;;;;;;;;;;;;;;;4966557;28;20028;-94
2024/02/25 18:44:14;;;;;;;;;;;;;;;;;;4977102;28;19929;-94
2024/02/25 18:46:39;;;;;;;;;;;;;;;;;;4971934;28;20286;-94
2024/02/25 18:49:04;;;;;;;;;;;;;;;;;;4985252;28;19965;-93
2024/02/25 18:51:30;;;;;;;;;;;;;;;;;;4982565;28;19934;-92
2024/02/25 18:53:56;;;;;;;;;;;;;;;;;;4971476;28;19973;-95
2024/02/25 18:56:22;;;;;;;;;;;;;;;;;;4974034;28;19918;-92
2024/02/25 18:58:47;;;;;;;;;;;;;;;;;;4971006;28;19977;-93
2024/02/25 19:01:13;;;;;;;;;;;;;;;;;;4957154;28;20278;-90
2024/02/25 19:03:39;;;;;;;;;;;;;;;;;;4952970;28;19922;-92
2024/02/25 19:06:06;;;;;;;;;;;;;;;;;;4969451;28;20005;-89
2024/02/25 19:08:32;;;;;;;;;;;;;;;;;;4979753;28;19946;-89
2024/02/25 19:10:59;;;;;;;;;;;;;;;;;;4971296;28;19934;-90
2024/02/25 19:13:25;;;;;;;;;;;;;;;;;;4966897;28;19926;-92
2024/02/25 19:15:50;;;;;;;;;;;;;;;;;;4980870;28;19941;-90
2024/02/25 19:18:16;;;;;;;;;;;;;;;;;;4966483;28;20013;-92
2024/02/25 19:20:44;;;;;;;;;;;;;;;;;;4946636;28;19923;-89
2024/02/25 19:23:10;;;;;;;;;;;;;;;;;;4987847;28;19924;-90
2024/02/25 19:25:35;;;;;;;;;;;;;;;;;;4965186;28;20005;-90
2024/02/25 19:28:00;;;;;;;;;;;;;;;;;;4967955;28;19929;-92
2024/02/25 19:30:26;;;;;;;;;;;;;;;;;;4967520;28;20288;-90
2024/02/25 19:32:52;;;;;;;;;;;;;;;;;;4962598;28;19962;-91
2024/02/25 19:35:18;;;;;;;;;;;;;;;;;;4972975;28;19918;-94
2024/02/25 19:37:44;;;;;;;;;;;;;;;;;;4977520;28;19922;-91
2024/02/25 19:40:10;;;;;;;;;;;;;;;;;;4946602;29;19977;-95
2024/02/25 19:42:36;;;;;;;;;;;;;;;;;;4977067;28;19929;-92
2024/02/25 19:45:05;;;;;;;;;;;;;;;;;;4972707;28;19924;-94
2024/02/25 19:47:31;;;;;;;;;;;;;;;;;;4981291;28;19969;-87
2024/02/25 19:49:57;;;;;;;;;;;;;;;;;;4981411;28;19926;-89
2024/02/25 19:52:22;;;;;;;;;;;;;;;;;;4979166;28;19918;-90
2024/02/25 19:54:48;;;;;;;;;;;;;;;;;;4967250;28;20321;-93
2024/02/25 19:57:17;;;;;;;;;;;;;;;;;;4976534;28;19926;-88
2024/02/25 19:59:43;;;;;;;;;;;;;;;;;;4970852;28;20018;-88
2024/02/25 20:02:09;;;;;;;;;;;;;;;;;;4977062;28;19976;-87
2024/02/25 20:04:34;;;;;;;;;;;;;;;;;;4976762;28;19922;-93
2024/02/25 20:07:00;;;;;;;;;;;;;;;;;;4959802;28;19928;-88
2024/02/25 20:09:26;;;;;;;;;;;;;;;;;;4965770;28;19939;-87
2024/02/25 20:11:51;;;;;;;;;;;;;;;;;;4961599;28;19922;-86
2024/02/25 20:14:17;;;;;;;;;;;;;;;;;;4976356;28;19929;-87
2024/02/25 20:16:44;;;;;;;;;;;;;;;;;;4960307;28;19918;-89
2024/02/25 20:19:09;;;;;;;;;;;;;;;;;;4952935;28;19919;-88
2024/02/25 20:21:34;;;;;;;;;;;;;;;;;;4959295;28;19924;-87
2024/02/25 20:24:00;;;;;;;;;;;;;;;;;;4974970;28;19925;-87
2024/02/25 20:26:25;;;;;;;;;;;;;;;;;;4958674;28;19922;-88
2024/02/25 20:28:51;;;;;;;;;;;;;;;;;;4959316;28;20364;-88
2024/02/25 20:31:16;;;;;;;;;;;;;;;;;;4975906;28;19918;-90
2024/02/25 20:33:41;;;;;;;;;;;;;;;;;;4976067;28;19993;-87
2024/02/25 20:36:08;;;;;;;;;;;;;;;;;;4975568;28;19918;-87
2024/02/25 20:38:34;;;;;;;;;;;;;;;;;;4955183;29;20388;-89
2024/02/25 20:41:00;;;;;;;;;;;;;;;;;;4968301;28;19918;-88
2024/02/25 20:43:26;;;;;;;;;;;;;;;;;;4976443;28;19985;-87
2024/02/25 20:45:51;;;;;;;;;;;;;;;;;;4955884;29;20374;-88
2024/02/25 20:48:16;;;;;;;;;;;;;;;;;;4973626;28;20276;-89
2024/02/25 20:50:41;;;;;;;;;;;;;;;;;;4956236;29;20366;-87
2024/02/25 20:53:07;;;;;;;;;;;;;;;;;;4972592;28;19922;-88
2024/02/25 20:55:32;;;;;;;;;;;;;;;;;;4976044;28;19922;-89
2024/02/25 20:57:59;;;;;;;;;;;;;;;;;;4977289;28;19925;-88
2024/02/25 21:00:25;;;;;;;;;;;;;;;;;;4987164;28;19922;-95
2024/02/25 21:02:50;;;;;;;;;;;;;;;;;;4983312;28;20258;-95
2024/02/25 21:05:15;;;;;;;;;;;;;;;;;;4962868;28;19918;-89
2024/02/25 21:07:42;;;;;;;;;;;;;;;;;;4978807;28;19924;-90
2024/02/25 21:10:10;;;;;;;;;;;;;;;;;;4989900;28;19949;-91
2024/02/25 21:12:35;;;;;;;;;;;;;;;;;;4966674;28;20017;-89
2024/02/25 21:15:02;;;;;;;;;;;;;;;;;;4957362;28;19969;-87
2024/02/25 21:17:28;;;;;;;;;;;;;;;;;;4959591;28;19918;-89
2024/02/25 21:19:54;;;;;;;;;;;;;;;;;;4977304;28;19924;-89
2024/02/25 21:22:19;;;;;;;;;;;;;;;;;;4955901;28;19919;-89
2024/02/25 21:24:45;;;;;;;;;;;;;;;;;;4958542;28;20024;-88
2024/02/25 21:27:10;;;;;;;;;;;;;;;;;;4943761;29;20388;-93
2024/02/25 21:29:36;;;;;;;;;;;;;;;;;;4976420;28;19918;-94
2024/02/25 21:32:04;;;;;;;;;;;;;;;;;;4977384;28;19941;-91
2024/02/25 21:34:29;;;;;;;;;;;;;;;;;;4974652;28;19918;-93
2024/02/25 21:36:55;;;;;;;;;;;;;;;;;;4959449;28;19918;-90
2024/02/25 21:39:21;;;;;;;;;;;;;;;;;;4977109;28;19922;-88
2024/02/25 21:41:46;;;;;;;;;;;;;;;;;;4961752;28;20033;-93
2024/02/25 21:44:12;;;;;;;;;;;;;;;;;;4963166;28;19918;-92
2024/02/25 21:46:41;;;;;;;;;;;;;;;;;;4979436;28;19924;-89
2024/02/25 21:49:06;;;;;;;;;;;;;;;;;;4978335;28;19926;-88
2024/02/25 21:51:32;;;;;;;;;;;;;;;;;;4973605;28;19925;-92
2024/02/25 21:53:57;;;;;;;;;;;;;;;;;;4966973;28;19989;-92
2024/02/25 21:56:23;;;;;;;;;;;;;;;;;;4982536;28;20380;-88
2024/02/25 21:58:48;;;;;;;;;;;;;;;;;;4963796;28;19918;-90
2024/02/25 22:01:14;;;;;;;;;;;;;;;;;;4970982;28;19925;-90
2024/02/25 22:03:39;;;;;;;;;;;;;;;;;;4987557;28;20377;-90
2024/02/25 22:06:04;;;;;;;;;;;;;;;;;;4963356;28;20298;-89
2024/02/25 22:08:31;;;;;;;;;;;;;;;;;;4973921;28;19922;-89
2024/02/25 22:10:57;;;;;;;;;;;;;;;;;;4971174;28;20269;-89
2024/02/25 22:13:22;;;;;;;;;;;;;;;;;;4958374;28;19942;-89
2024/02/25 22:15:47;;;;;;;;;;;;;;;;;;4959997;28;20324;-92
2024/02/25 22:18:13;;;;;;;;;;;;;;;;;;4968264;28;19928;-93
2024/02/25 22:20:38;;;;;;;;;;;;;;;;;;4976063;28;20365;-90
2024/02/25 22:23:03;;;;;;;;;;;;;;;;;;4977150;28;19933;-89
2024/02/25 22:25:30;;;;;;;;;;;;;;;;;;4975394;28;19925;-91
2024/02/25 22:27:55;;;;;;;;;;;;;;;;;;4986191;28;19922;-95
2024/02/25 22:30:21;;;;;;;;;;;;;;;;;;4995270;28;19918;-93
2024/02/25 22:32:46;;;;;;;;;;;;;;;;;;4960120;28;19918;-90
2024/02/25 22:35:15;;;;;;;;;;;;;;;;;;4958947;28;20388;-91
2024/02/25 22:37:42;;;;;;;;;;;;;;;;;;4963046;28;19922;-91
2024/02/25 22:40:08;;;;;;;;;;;;;;;;;;4973414;28;19918;-93
2024/02/25 22:42:33;;;;;;;;;;;;;;;;;;4961484;28;20025;-92
2024/02/25 22:44:58;;;;;;;;;;;;;;;;;;4998342;28;19944;-93
2024/02/25 22:47:24;;;;;;;;;;;;;;;;;;4966063;28;19930;-92
2024/02/25 22:49:49;;;;;;;;;;;;;;;;;;4962058;28;20404;-94
2024/02/25 22:52:17;;;;;;;;;;;;;;;;;;4972514;28;19922;-90
2024/02/25 22:54:43;;;;;;;;;;;;;;;;;;4975536;28;19918;-92
2024/02/25 22:57:08;;;;;;;;;;;;;;;;;;4975932;28;19918;-91
2024/02/25 22:59:33;;;;;;;;;;;;;;;;;;4972146;28;19918;-91
2024/02/25 23:01:59;;;;;;;;;;;;;;;;;;4966522;28;20292;-90
2024/02/25 23:04:24;;;;;;;;;;;;;;;;;;4990173;28;20316;-93
